sensor_id;sensor_type;location;lat;lon;timestamp;P1;durP1;ratioP1;P2;durP2;ratioP2
39948;SDS011;29070;48.102;-1.652;2023-03-01T00:02:41;23.00;;;10.82;;
39948;SDS011;29070;48.102;-1.652;2023-03-01T00:07:41;20.13;;;9.97;;
39948;SDS011;29070;48.102;-1.652;2023-03-01T00:12:41;25.93;;;11.57;;
39948;SDS011;29070;48.102;-1.652;2023-03-01T00:17:42;21.40;;;10.97;;
39948;SDS011;29070;48.102;-1.652;2023-03-01T00:22:42;20.83;;;10.57;;
39948;SDS011;29070;48.102;-1.652;2023-03-01T00:27:42;23.50;;;11.13;;
39948;SDS011;29070;48.102;-1.652;2023-03-01T00:32:43;18.83;;;10.70;;
39948;SDS011;29070;48.102;-1.652;2023-03-01T00:37:43;21.95;;;11.05;;
39948;SDS011;29070;48.102;-1.652;2023-03-01T00:42:44;18.07;;;10.50;;
39948;SDS011;29070;48.102;-1.652;2023-03-01T00:47:44;20.30;;;10.73;;
39948;SDS011;29070;48.102;-1.652;2023-03-01T00:52:44;22.95;;;11.63;;
39948;SDS011;29070;48.102;-1.652;2023-03-01T00:57:45;20.98;;;10.68;;
39948;SDS011;29070;48.102;-1.652;2023-03-01T01:02:45;18.73;;;10.03;;
39948;SDS011;29070;48.102;-1.652;2023-03-01T01:07:46;21.95;;;11.10;;
39948;SDS011;29070;48.102;-1.652;2023-03-01T01:12:48;26.88;;;11.05;;
39948;SDS011;29070;48.102;-1.652;2023-03-01T01:17:48;28.63;;;11.83;;
39948;SDS011;29070;48.102;-1.652;2023-03-01T01:22:48;21.47;;;11.10;;
39948;SDS011;29070;48.102;-1.652;2023-03-01T01:27:48;19.97;;;10.50;;
39948;SDS011;29070;48.102;-1.652;2023-03-01T01:32:49;20.43;;;10.13;;
39948;SDS011;29070;48.102;-1.652;2023-03-01T01:37:49;22.50;;;11.30;;
39948;SDS011;29070;48.102;-1.652;2023-03-01T01:42:49;21.07;;;10.87;;
39948;SDS011;29070;48.102;-1.652;2023-03-01T01:47:50;22.63;;;11.20;;
39948;SDS011;29070;48.102;-1.652;2023-03-01T01:52:52;20.02;;;10.20;;
39948;SDS011;29070;48.102;-1.652;2023-03-01T01:57:56;26.58;;;11.10;;
39948;SDS011;29070;48.102;-1.652;2023-03-01T02:03:03;21.42;;;10.30;;
39948;SDS011;29070;48.102;-1.652;2023-03-01T02:08:08;21.50;;;10.05;;
39948;SDS011;29070;48.102;-1.652;2023-03-01T02:13:11;19.98;;;9.98;;
39948;SDS011;29070;48.102;-1.652;2023-03-01T02:18:13;22.27;;;10.07;;
39948;SDS011;29070;48.102;-1.652;2023-03-01T02:23:16;20.80;;;11.10;;
39948;SDS011;29070;48.102;-1.652;2023-03-01T02:33:22;17.52;;;8.98;;
39948;SDS011;29070;48.102;-1.652;2023-03-01T02:38:23;20.52;;;10.02;;
39948;SDS011;29070;48.102;-1.652;2023-03-01T02:43:25;24.00;;;10.70;;
39948;SDS011;29070;48.102;-1.652;2023-03-01T02:48:39;18.88;;;10.45;;
39948;SDS011;29070;48.102;-1.652;2023-03-01T02:58:56;20.02;;;9.13;;
39948;SDS011;29070;48.102;-1.652;2023-03-01T03:04:00;16.40;;;10.10;;
39948;SDS011;29070;48.102;-1.652;2023-03-01T03:09:01;18.07;;;9.27;;
39948;SDS011;29070;48.102;-1.652;2023-03-01T03:14:02;18.80;;;9.07;;
39948;SDS011;29070;48.102;-1.652;2023-03-01T03:19:03;20.02;;;9.15;;
39948;SDS011;29070;48.102;-1.652;2023-03-01T03:24:04;19.73;;;9.90;;
39948;SDS011;29070;48.102;-1.652;2023-03-01T03:29:05;17.67;;;9.32;;
39948;SDS011;29070;48.102;-1.652;2023-03-01T03:34:05;17.67;;;9.63;;
39948;SDS011;29070;48.102;-1.652;2023-03-01T03:39:06;15.57;;;9.23;;
39948;SDS011;29070;48.102;-1.652;2023-03-01T03:44:06;16.37;;;8.73;;
39948;SDS011;29070;48.102;-1.652;2023-03-01T03:49:06;17.90;;;9.10;;
39948;SDS011;29070;48.102;-1.652;2023-03-01T03:54:07;22.13;;;9.60;;
39948;SDS011;29070;48.102;-1.652;2023-03-01T03:59:07;18.25;;;8.45;;
39948;SDS011;29070;48.102;-1.652;2023-03-01T04:04:11;18.15;;;9.13;;
39948;SDS011;29070;48.102;-1.652;2023-03-01T04:09:11;17.57;;;9.03;;
39948;SDS011;29070;48.102;-1.652;2023-03-01T04:14:12;15.07;;;8.57;;
39948;SDS011;29070;48.102;-1.652;2023-03-01T04:19:12;24.13;;;10.83;;
39948;SDS011;29070;48.102;-1.652;2023-03-01T04:24:12;18.63;;;9.53;;
39948;SDS011;29070;48.102;-1.652;2023-03-01T04:29:13;17.37;;;9.50;;
39948;SDS011;29070;48.102;-1.652;2023-03-01T04:34:13;18.50;;;10.43;;
39948;SDS011;29070;48.102;-1.652;2023-03-01T04:39:14;17.38;;;9.70;;
39948;SDS011;29070;48.102;-1.652;2023-03-01T04:44:14;21.07;;;9.83;;
39948;SDS011;29070;48.102;-1.652;2023-03-01T04:49:14;18.53;;;9.47;;
39948;SDS011;29070;48.102;-1.652;2023-03-01T04:54:15;18.10;;;8.82;;
39948;SDS011;29070;48.102;-1.652;2023-03-01T04:59:16;23.63;;;9.50;;
39948;SDS011;29070;48.102;-1.652;2023-03-01T05:04:16;20.47;;;9.87;;
39948;SDS011;29070;48.102;-1.652;2023-03-01T05:09:17;18.77;;;9.15;;
39948;SDS011;29070;48.102;-1.652;2023-03-01T05:14:17;19.93;;;10.10;;
39948;SDS011;29070;48.102;-1.652;2023-03-01T05:19:18;20.13;;;9.82;;
39948;SDS011;29070;48.102;-1.652;2023-03-01T05:24:22;19.07;;;9.03;;
39948;SDS011;29070;48.102;-1.652;2023-03-01T05:29:23;18.85;;;9.13;;
39948;SDS011;29070;48.102;-1.652;2023-03-01T05:34:26;22.13;;;10.15;;
39948;SDS011;29070;48.102;-1.652;2023-03-01T05:39:33;16.77;;;9.20;;
39948;SDS011;29070;48.102;-1.652;2023-03-01T05:44:33;19.80;;;9.25;;
39948;SDS011;29070;48.102;-1.652;2023-03-01T05:49:34;16.50;;;8.33;;
39948;SDS011;29070;48.102;-1.652;2023-03-01T05:54:34;20.25;;;10.20;;
39948;SDS011;29070;48.102;-1.652;2023-03-01T05:59:35;16.90;;;9.10;;
39948;SDS011;29070;48.102;-1.652;2023-03-01T06:04:35;17.63;;;8.80;;
39948;SDS011;29070;48.102;-1.652;2023-03-01T06:09:35;16.63;;;8.93;;
39948;SDS011;29070;48.102;-1.652;2023-03-01T06:14:36;21.17;;;9.47;;
39948;SDS011;29070;48.102;-1.652;2023-03-01T06:19:36;22.70;;;10.20;;
39948;SDS011;29070;48.102;-1.652;2023-03-01T06:24:36;21.02;;;10.75;;
39948;SDS011;29070;48.102;-1.652;2023-03-01T06:29:37;21.17;;;9.03;;
39948;SDS011;29070;48.102;-1.652;2023-03-01T06:34:37;16.98;;;9.10;;
39948;SDS011;29070;48.102;-1.652;2023-03-01T06:39:37;19.27;;;8.90;;
39948;SDS011;29070;48.102;-1.652;2023-03-01T06:44:38;19.90;;;9.40;;
39948;SDS011;29070;48.102;-1.652;2023-03-01T06:49:39;17.17;;;8.50;;
39948;SDS011;29070;48.102;-1.652;2023-03-01T06:54:39;18.27;;;9.10;;
39948;SDS011;29070;48.102;-1.652;2023-03-01T06:59:41;19.67;;;9.75;;
39948;SDS011;29070;48.102;-1.652;2023-03-01T07:04:41;21.57;;;9.80;;
39948;SDS011;29070;48.102;-1.652;2023-03-01T07:09:42;18.10;;;9.57;;
39948;SDS011;29070;48.102;-1.652;2023-03-01T07:14:43;18.77;;;9.03;;
39948;SDS011;29070;48.102;-1.652;2023-03-01T07:19:44;19.58;;;8.43;;
39948;SDS011;29070;48.102;-1.652;2023-03-01T07:24:44;18.70;;;9.20;;
39948;SDS011;29070;48.102;-1.652;2023-03-01T07:29:45;17.97;;;9.00;;
39948;SDS011;29070;48.102;-1.652;2023-03-01T07:34:45;21.93;;;9.87;;
39948;SDS011;29070;48.102;-1.652;2023-03-01T07:39:45;19.20;;;9.33;;
39948;SDS011;29070;48.102;-1.652;2023-03-01T07:44:46;17.20;;;8.47;;
39948;SDS011;29070;48.102;-1.652;2023-03-01T07:49:46;17.63;;;9.10;;
39948;SDS011;29070;48.102;-1.652;2023-03-01T07:54:46;16.53;;;7.87;;
39948;SDS011;29070;48.102;-1.652;2023-03-01T07:59:47;18.70;;;8.07;;
39948;SDS011;29070;48.102;-1.652;2023-03-01T08:04:47;16.00;;;8.40;;
39948;SDS011;29070;48.102;-1.652;2023-03-01T08:09:47;19.25;;;7.38;;
39948;SDS011;29070;48.102;-1.652;2023-03-01T08:14:48;17.27;;;8.83;;
39948;SDS011;29070;48.102;-1.652;2023-03-01T08:19:49;17.10;;;8.52;;
39948;SDS011;29070;48.102;-1.652;2023-03-01T08:24:49;16.05;;;7.90;;
39948;SDS011;29070;48.102;-1.652;2023-03-01T08:29:49;19.42;;;7.63;;
39948;SDS011;29070;48.102;-1.652;2023-03-01T08:34:50;18.27;;;8.10;;
39948;SDS011;29070;48.102;-1.652;2023-03-01T08:39:50;16.57;;;6.80;;
39948;SDS011;29070;48.102;-1.652;2023-03-01T08:44:50;17.73;;;8.38;;
39948;SDS011;29070;48.102;-1.652;2023-03-01T08:49:51;16.08;;;7.78;;
39948;SDS011;29070;48.102;-1.652;2023-03-01T08:54:52;14.73;;;7.32;;
39948;SDS011;29070;48.102;-1.652;2023-03-01T08:59:53;13.80;;;7.95;;
39948;SDS011;29070;48.102;-1.652;2023-03-01T09:04:56;19.77;;;7.90;;
39948;SDS011;29070;48.102;-1.652;2023-03-01T09:09:56;13.47;;;6.97;;
39948;SDS011;29070;48.102;-1.652;2023-03-01T09:14:56;17.08;;;8.20;;
39948;SDS011;29070;48.102;-1.652;2023-03-01T09:19:56;19.80;;;8.50;;
39948;SDS011;29070;48.102;-1.652;2023-03-01T09:24:57;16.27;;;8.57;;
39948;SDS011;29070;48.102;-1.652;2023-03-01T09:29:59;14.73;;;7.43;;
39948;SDS011;29070;48.102;-1.652;2023-03-01T09:34:59;16.80;;;7.73;;
39948;SDS011;29070;48.102;-1.652;2023-03-01T09:40:06;17.85;;;7.75;;
39948;SDS011;29070;48.102;-1.652;2023-03-01T09:45:29;16.67;;;7.90;;
39948;SDS011;29070;48.102;-1.652;2023-03-01T09:50:36;15.68;;;7.57;;
39948;SDS011;29070;48.102;-1.652;2023-03-01T10:07:03;15.50;;;8.15;;
39948;SDS011;29070;48.102;-1.652;2023-03-01T10:12:10;20.50;;;7.88;;
39948;SDS011;29070;48.102;-1.652;2023-03-01T10:17:24;17.83;;;8.02;;
39948;SDS011;29070;48.102;-1.652;2023-03-01T10:22:30;29.42;;;9.30;;
39948;SDS011;29070;48.102;-1.652;2023-03-01T10:27:39;20.00;;;9.95;;
39948;SDS011;29070;48.102;-1.652;2023-03-01T10:32:41;23.08;;;10.43;;
39948;SDS011;29070;48.102;-1.652;2023-03-01T10:37:56;18.73;;;9.23;;
39948;SDS011;29070;48.102;-1.652;2023-03-01T10:42:58;18.08;;;8.50;;
39948;SDS011;29070;48.102;-1.652;2023-03-01T10:48:03;14.85;;;7.70;;
39948;SDS011;29070;48.102;-1.652;2023-03-01T10:53:05;16.05;;;8.18;;
39948;SDS011;29070;48.102;-1.652;2023-03-01T10:58:19;16.33;;;9.68;;
39948;SDS011;29070;48.102;-1.652;2023-03-01T11:03:25;16.30;;;8.55;;
39948;SDS011;29070;48.102;-1.652;2023-03-01T11:08:29;17.85;;;9.48;;
39948;SDS011;29070;48.102;-1.652;2023-03-01T11:13:31;19.90;;;9.45;;
39948;SDS011;29070;48.102;-1.652;2023-03-01T11:18:31;19.17;;;9.93;;
39948;SDS011;29070;48.102;-1.652;2023-03-01T11:23:32;18.52;;;9.73;;
39948;SDS011;29070;48.102;-1.652;2023-03-01T11:28:33;18.05;;;9.93;;
39948;SDS011;29070;48.102;-1.652;2023-03-01T11:39:23;20.05;;;10.48;;
39948;SDS011;29070;48.102;-1.652;2023-03-01T11:44:29;18.40;;;9.63;;
39948;SDS011;29070;48.102;-1.652;2023-03-01T12:00:11;15.00;;;7.88;;
39948;SDS011;29070;48.102;-1.652;2023-03-01T12:05:42;13.98;;;7.93;;
39948;SDS011;29070;48.102;-1.652;2023-03-01T12:16:36;15.13;;;8.20;;
39948;SDS011;29070;48.102;-1.652;2023-03-01T12:21:57;16.40;;;8.45;;
39948;SDS011;29070;48.102;-1.652;2023-03-01T12:32:15;17.00;;;7.75;;
39948;SDS011;29070;48.102;-1.652;2023-03-01T12:37:39;16.77;;;8.63;;
39948;SDS011;29070;48.102;-1.652;2023-03-01T12:48:08;14.90;;;8.13;;
39948;SDS011;29070;48.102;-1.652;2023-03-01T12:53:36;13.02;;;7.22;;
39948;SDS011;29070;48.102;-1.652;2023-03-01T13:14:44;10.27;;;5.57;;
39948;SDS011;29070;48.102;-1.652;2023-03-01T13:19:55;10.13;;;5.95;;
39948;SDS011;29070;48.102;-1.652;2023-03-01T13:25:01;10.45;;;5.40;;
39948;SDS011;29070;48.102;-1.652;2023-03-01T13:35:43;9.10;;;5.40;;
39948;SDS011;29070;48.102;-1.652;2023-03-01T13:45:51;9.05;;;4.60;;
39948;SDS011;29070;48.102;-1.652;2023-03-01T13:50:58;9.60;;;4.13;;
39948;SDS011;29070;48.102;-1.652;2023-03-01T13:56:03;8.35;;;4.20;;
39948;SDS011;29070;48.102;-1.652;2023-03-01T14:01:33;7.22;;;4.50;;
39948;SDS011;29070;48.102;-1.652;2023-03-01T14:06:35;8.15;;;4.10;;
39948;SDS011;29070;48.102;-1.652;2023-03-01T14:22:13;5.15;;;3.80;;
39948;SDS011;29070;48.102;-1.652;2023-03-01T14:27:17;6.97;;;3.70;;
39948;SDS011;29070;48.102;-1.652;2023-03-01T14:32:19;6.07;;;4.10;;
39948;SDS011;29070;48.102;-1.652;2023-03-01T14:37:23;7.00;;;4.18;;
39948;SDS011;29070;48.102;-1.652;2023-03-01T14:42:30;8.48;;;4.80;;
39948;SDS011;29070;48.102;-1.652;2023-03-01T14:47:35;6.85;;;4.13;;
39948;SDS011;29070;48.102;-1.652;2023-03-01T14:52:40;7.72;;;4.55;;
39948;SDS011;29070;48.102;-1.652;2023-03-01T14:57:42;7.20;;;4.75;;
39948;SDS011;29070;48.102;-1.652;2023-03-01T15:02:45;12.98;;;6.28;;
39948;SDS011;29070;48.102;-1.652;2023-03-01T15:07:47;10.77;;;5.75;;
39948;SDS011;29070;48.102;-1.652;2023-03-01T15:12:48;12.32;;;6.32;;
39948;SDS011;29070;48.102;-1.652;2023-03-01T15:17:50;11.38;;;6.80;;
39948;SDS011;29070;48.102;-1.652;2023-03-01T15:22:57;9.88;;;6.05;;
39948;SDS011;29070;48.102;-1.652;2023-03-01T15:28:00;15.70;;;8.23;;
39948;SDS011;29070;48.102;-1.652;2023-03-01T15:33:18;12.35;;;7.70;;
39948;SDS011;29070;48.102;-1.652;2023-03-01T15:48:38;12.00;;;7.55;;
39948;SDS011;29070;48.102;-1.652;2023-03-01T15:53:38;14.53;;;7.57;;
39948;SDS011;29070;48.102;-1.652;2023-03-01T15:58:39;13.75;;;8.05;;
39948;SDS011;29070;48.102;-1.652;2023-03-01T16:03:39;12.20;;;7.80;;
39948;SDS011;29070;48.102;-1.652;2023-03-01T16:08:40;16.65;;;9.23;;
39948;SDS011;29070;48.102;-1.652;2023-03-01T16:13:41;15.82;;;8.27;;
39948;SDS011;29070;48.102;-1.652;2023-03-01T16:18:43;15.95;;;8.68;;
39948;SDS011;29070;48.102;-1.652;2023-03-01T16:23:45;14.43;;;8.50;;
39948;SDS011;29070;48.102;-1.652;2023-03-01T16:28:46;11.75;;;8.15;;
39948;SDS011;29070;48.102;-1.652;2023-03-01T16:33:46;12.60;;;8.00;;
39948;SDS011;29070;48.102;-1.652;2023-03-01T16:38:50;14.93;;;8.23;;
39948;SDS011;29070;48.102;-1.652;2023-03-01T16:43:51;14.45;;;7.25;;
39948;SDS011;29070;48.102;-1.652;2023-03-01T16:48:51;13.70;;;7.38;;
39948;SDS011;29070;48.102;-1.652;2023-03-01T16:53:52;9.60;;;6.55;;
39948;SDS011;29070;48.102;-1.652;2023-03-01T16:58:52;10.73;;;6.93;;
39948;SDS011;29070;48.102;-1.652;2023-03-01T17:03:53;9.77;;;6.60;;
39948;SDS011;29070;48.102;-1.652;2023-03-01T17:08:53;12.77;;;6.93;;
39948;SDS011;29070;48.102;-1.652;2023-03-01T17:13:53;12.77;;;7.67;;
39948;SDS011;29070;48.102;-1.652;2023-03-01T17:18:54;15.00;;;7.87;;
39948;SDS011;29070;48.102;-1.652;2023-03-01T17:23:55;16.43;;;7.93;;
39948;SDS011;29070;48.102;-1.652;2023-03-01T17:28:56;18.23;;;8.18;;
39948;SDS011;29070;48.102;-1.652;2023-03-01T17:33:58;19.73;;;10.25;;
39948;SDS011;29070;48.102;-1.652;2023-03-01T17:38:58;16.85;;;10.02;;
39948;SDS011;29070;48.102;-1.652;2023-03-01T17:43:58;16.97;;;7.90;;
39948;SDS011;29070;48.102;-1.652;2023-03-01T17:48:59;16.37;;;7.90;;
39948;SDS011;29070;48.102;-1.652;2023-03-01T17:53:59;17.30;;;7.05;;
39948;SDS011;29070;48.102;-1.652;2023-03-01T17:59:00;16.98;;;7.45;;
39948;SDS011;29070;48.102;-1.652;2023-03-01T18:04:00;12.93;;;7.35;;
39948;SDS011;29070;48.102;-1.652;2023-03-01T18:09:01;10.53;;;6.13;;
39948;SDS011;29070;48.102;-1.652;2023-03-01T18:14:02;12.93;;;6.68;;
39948;SDS011;29070;48.102;-1.652;2023-03-01T18:19:03;13.02;;;6.53;;
39948;SDS011;29070;48.102;-1.652;2023-03-01T18:24:04;11.35;;;6.07;;
39948;SDS011;29070;48.102;-1.652;2023-03-01T18:29:04;14.00;;;6.60;;
39948;SDS011;29070;48.102;-1.652;2023-03-01T18:34:06;13.18;;;6.95;;
39948;SDS011;29070;48.102;-1.652;2023-03-01T18:39:07;18.02;;;7.75;;
39948;SDS011;29070;48.102;-1.652;2023-03-01T18:44:08;17.45;;;7.40;;
39948;SDS011;29070;48.102;-1.652;2023-03-01T18:49:09;16.30;;;7.63;;
39948;SDS011;29070;48.102;-1.652;2023-03-01T18:54:12;15.82;;;7.97;;
39948;SDS011;29070;48.102;-1.652;2023-03-01T18:59:13;20.92;;;10.00;;
39948;SDS011;29070;48.102;-1.652;2023-03-01T19:04:13;19.87;;;9.87;;
39948;SDS011;29070;48.102;-1.652;2023-03-01T19:09:13;18.70;;;7.28;;
39948;SDS011;29070;48.102;-1.652;2023-03-01T19:14:14;17.50;;;7.65;;
39948;SDS011;29070;48.102;-1.652;2023-03-01T19:19:15;15.47;;;7.90;;
39948;SDS011;29070;48.102;-1.652;2023-03-01T19:24:15;13.00;;;6.93;;
39948;SDS011;29070;48.102;-1.652;2023-03-01T19:29:16;11.98;;;7.15;;
39948;SDS011;29070;48.102;-1.652;2023-03-01T19:34:16;14.27;;;7.60;;
39948;SDS011;29070;48.102;-1.652;2023-03-01T19:39:17;12.93;;;6.95;;
39948;SDS011;29070;48.102;-1.652;2023-03-01T19:44:26;21.90;;;10.52;;
39948;SDS011;29070;48.102;-1.652;2023-03-01T19:49:27;18.60;;;9.93;;
39948;SDS011;29070;48.102;-1.652;2023-03-01T19:54:28;15.93;;;7.53;;
39948;SDS011;29070;48.102;-1.652;2023-03-01T19:59:29;14.73;;;7.23;;
39948;SDS011;29070;48.102;-1.652;2023-03-01T20:04:29;17.17;;;8.80;;
39948;SDS011;29070;48.102;-1.652;2023-03-01T20:09:29;17.63;;;7.53;;
39948;SDS011;29070;48.102;-1.652;2023-03-01T20:14:30;18.53;;;7.67;;
39948;SDS011;29070;48.102;-1.652;2023-03-01T20:19:30;20.23;;;9.13;;
39948;SDS011;29070;48.102;-1.652;2023-03-01T20:24:30;18.03;;;9.10;;
39948;SDS011;29070;48.102;-1.652;2023-03-01T20:29:31;17.10;;;8.90;;
39948;SDS011;29070;48.102;-1.652;2023-03-01T20:34:31;18.87;;;7.77;;
39948;SDS011;29070;48.102;-1.652;2023-03-01T20:39:31;17.33;;;8.53;;
39948;SDS011;29070;48.102;-1.652;2023-03-01T20:44:32;14.30;;;7.47;;
39948;SDS011;29070;48.102;-1.652;2023-03-01T20:49:33;18.83;;;7.97;;
39948;SDS011;29070;48.102;-1.652;2023-03-01T20:54:34;18.83;;;8.13;;
39948;SDS011;29070;48.102;-1.652;2023-03-01T20:59:34;14.30;;;7.97;;
39948;SDS011;29070;48.102;-1.652;2023-03-01T21:04:36;21.98;;;10.05;;
39948;SDS011;29070;48.102;-1.652;2023-03-01T21:09:37;23.25;;;9.50;;
39948;SDS011;29070;48.102;-1.652;2023-03-01T21:14:38;18.70;;;8.60;;
39948;SDS011;29070;48.102;-1.652;2023-03-01T21:19:46;18.52;;;9.13;;
39948;SDS011;29070;48.102;-1.652;2023-03-01T21:24:46;34.43;;;10.53;;
39948;SDS011;29070;48.102;-1.652;2023-03-01T21:29:47;19.05;;;9.10;;
39948;SDS011;29070;48.102;-1.652;2023-03-01T21:34:48;19.02;;;8.25;;
39948;SDS011;29070;48.102;-1.652;2023-03-01T21:39:48;14.53;;;7.50;;
39948;SDS011;29070;48.102;-1.652;2023-03-01T21:44:49;20.83;;;8.30;;
39948;SDS011;29070;48.102;-1.652;2023-03-01T21:49:49;16.53;;;8.07;;
39948;SDS011;29070;48.102;-1.652;2023-03-01T21:54:50;17.57;;;8.20;;
39948;SDS011;29070;48.102;-1.652;2023-03-01T21:59:50;16.33;;;7.80;;
39948;SDS011;29070;48.102;-1.652;2023-03-01T22:04:51;14.67;;;8.30;;
39948;SDS011;29070;48.102;-1.652;2023-03-01T22:09:56;15.00;;;8.00;;
39948;SDS011;29070;48.102;-1.652;2023-03-01T22:14:56;14.03;;;7.83;;
39948;SDS011;29070;48.102;-1.652;2023-03-01T22:19:57;26.03;;;10.67;;
39948;SDS011;29070;48.102;-1.652;2023-03-01T22:24:57;31.13;;;11.68;;
39948;SDS011;29070;48.102;-1.652;2023-03-01T22:29:57;25.73;;;11.07;;
39948;SDS011;29070;48.102;-1.652;2023-03-01T22:34:58;19.97;;;7.87;;
39948;SDS011;29070;48.102;-1.652;2023-03-01T22:39:58;14.77;;;7.73;;
39948;SDS011;29070;48.102;-1.652;2023-03-01T22:44:58;16.67;;;7.80;;
39948;SDS011;29070;48.102;-1.652;2023-03-01T22:49:59;19.00;;;8.53;;
39948;SDS011;29070;48.102;-1.652;2023-03-01T22:54:59;17.90;;;8.23;;
39948;SDS011;29070;48.102;-1.652;2023-03-01T22:59:59;15.53;;;8.10;;
39948;SDS011;29070;48.102;-1.652;2023-03-01T23:05:00;16.33;;;7.07;;
39948;SDS011;29070;48.102;-1.652;2023-03-01T23:10:00;17.63;;;7.57;;
39948;SDS011;29070;48.102;-1.652;2023-03-01T23:15:01;16.55;;;8.63;;
39948;SDS011;29070;48.102;-1.652;2023-03-01T23:20:02;17.13;;;7.43;;
39948;SDS011;29070;48.102;-1.652;2023-03-01T23:25:09;21.15;;;9.05;;
39948;SDS011;29070;48.102;-1.652;2023-03-01T23:30:12;18.30;;;7.72;;
39948;SDS011;29070;48.102;-1.652;2023-03-01T23:35:12;17.30;;;8.07;;
39948;SDS011;29070;48.102;-1.652;2023-03-01T23:40:12;15.70;;;6.93;;
39948;SDS011;29070;48.102;-1.652;2023-03-01T23:45:13;19.00;;;7.57;;
39948;SDS011;29070;48.102;-1.652;2023-03-01T23:50:14;16.55;;;7.90;;
39948;SDS011;29070;48.102;-1.652;2023-03-01T23:55:14;20.55;;;7.57;;
